Time;durP1;ratioP1;P1;durP2;ratioP2;P2;SDS_P1;SDS_P2;PMS_P1;PMS_P2;Temp;Humidity;BMP_temperature;BMP_pressure;BME280_temperature;BME280_humidity;BME280_pressure;Samples;Min_cycle;Max_cycle;Signal;HPM_P1;HPM_P2
2021/12/22 00:02:04;;;;;;;;;55.00;48.25;;;;;4.57;57.96;101646.88;6192384;23;45221;-85
2021/12/22 00:04:32;;;;;;;;;57.00;48.00;;;;;4.46;57.93;101641.84;6192455;23;44637;-85
2021/12/22 00:06:58;;;;;;;;;63.00;45.50;;;;;4.43;58.01;101654.88;6166094;23;45334;-85
2021/12/22 00:09:23;;;;;;;;;57.00;47.25;;;;;4.30;57.89;101648.03;6192018;23;45176;-84
2021/12/22 00:11:49;;;;;;;;;48.75;41.00;;;;;4.28;58.11;101649.66;6164982;23;48163;-84
2021/12/22 00:14:15;;;;;;;;;55.75;45.25;;;;;4.14;58.08;101644.56;6189894;23;45385;-84
2021/12/22 00:16:46;;;;;;;;;55.00;44.00;;;;;4.41;58.35;101639.88;6191968;23;45428;-84
2021/12/22 00:19:11;;;;;;;;;62.25;47.75;;;;;4.07;58.24;101642.41;6165854;23;45395;-84
2021/12/22 00:21:37;;;;;;;;;63.00;50.25;;;;;4.05;58.63;101644.06;6166865;23;46852;-84
2021/12/22 00:24:02;;;;;;;;;53.25;43.00;;;;;4.05;58.39;101632.63;6165044;23;45422;-85
2021/12/22 00:26:28;;;;;;;;;50.50;45.50;;;;;4.01;59.06;101636.81;6192274;23;45607;-84
2021/12/22 00:32:17;;;;;;;;;33.00;31.00;;;;;3.85;58.40;101629.78;6191437;23;45312;-85
2021/12/22 00:34:48;;;;;;;;;63.00;45.75;;;;;3.92;59.18;101631.03;6165215;23;45804;-84
2021/12/22 00:37:23;;;;;;;;;51.25;44.50;;;;;3.87;59.13;101611.47;6190113;23;45305;-84
2021/12/22 00:39:50;;;;;;;;;55.50;47.00;;;;;3.64;59.44;101624.25;6189553;23;45386;-85
2021/12/22 00:42:16;;;;;;;;;52.25;43.25;;;;;3.61;59.91;101645.09;6190058;23;46976;-84
2021/12/22 00:44:43;;;;;;;;;49.50;44.00;;;;;3.65;59.32;101638.31;6188929;23;45336;-84
2021/12/22 00:47:09;;;;;;;;;37.75;34.50;;;;;3.54;60.25;101642.97;6164838;23;45628;-84
2021/12/22 00:49:35;;;;;;;;;40.25;36.25;;;;;3.39;59.89;101622.88;6190360;23;45422;-84
2021/12/22 00:52:01;;;;;;;;;61.50;47.00;;;;;3.38;59.90;101613.16;6193632;23;45353;-84
2021/12/22 00:54:28;;;;;;;;;53.75;45.50;;;;;3.49;60.16;101623.38;6191739;23;45367;-84
2021/12/22 00:57:00;;;;;;;;;52.75;48.25;;;;;3.34;59.89;101621.69;6167243;23;45377;-85
2021/12/22 00:59:26;;;;;;;;;46.00;43.00;;;;;3.39;60.04;101638.66;6164321;23;45388;-84
2021/12/22 01:01:52;;;;;;;;;42.25;41.25;;;;;3.33;60.22;101627.78;6190067;23;47145;-85
2021/12/22 01:04:18;;;;;;;;;52.00;44.25;;;;;3.39;60.29;101633.38;6193762;23;45205;-85
2021/12/22 01:06:44;;;;;;;;;46.25;43.75;;;;;3.37;60.27;101629.78;6165939;23;44714;-84
2021/12/22 01:09:10;;;;;;;;;47.00;43.00;;;;;3.37;60.38;101629.78;6192359;23;45667;-85
2021/12/22 01:11:35;;;;;;;;;54.50;43.25;;;;;3.33;60.23;101640.00;6165346;23;47028;-85
2021/12/22 01:14:08;;;;;;;;;47.00;43.50;;;;;3.30;60.37;101643.38;6161425;23;45367;-85
2021/12/22 01:16:34;;;;;;;;;49.75;43.25;;;;;3.28;60.26;101638.84;6161909;23;45340;-85
2021/12/22 01:19:03;;;;;;;;;40.75;40.75;;;;;3.35;60.17;101636.66;6162985;23;45229;-85
2021/12/22 01:22:09;;;;;;;;;23.00;20.25;;;;;3.51;60.45;101641.03;6137623;23;46862;-85
2021/12/22 01:24:29;;;;;;;;;43.00;38.50;;;;;3.32;60.46;101631.22;6159356;23;45439;-85
2021/12/22 01:27:04;;;;;;;;;35.50;35.50;;;;;3.42;60.07;101631.75;6136331;23;45356;-85
2021/12/22 01:29:31;;;;;;;;;46.00;41.25;;;;;3.34;60.25;101616.44;6137986;23;45248;-84
2021/12/22 01:31:58;;;;;;;;;43.50;37.75;;;;;3.47;60.44;101619.75;6161684;23;45591;-84
2021/12/22 01:34:25;;;;;;;;;38.25;33.25;;;;;3.30;60.74;101603.94;6136132;23;45430;-84
2021/12/22 01:36:50;;;;;;;;;42.75;35.75;;;;;3.32;60.51;101619.78;6163262;23;45413;-84
2021/12/22 01:39:16;;;;;;;;;39.25;35.50;;;;;3.29;60.76;101599.50;6136389;23;45726;-84
2021/12/22 01:41:41;;;;;;;;;44.50;40.50;;;;;3.25;60.81;101599.22;6161354;23;47004;-85
2021/12/22 01:44:10;;;;;;;;;52.75;46.75;;;;;3.36;60.59;101596.38;6135314;23;45377;-84
2021/12/22 01:49:12;;;;;;;;;39.25;35.00;;;;;3.25;61.19;101583.44;6162070;23;45610;-83
2021/12/22 01:51:38;;;;;;;;;42.50;38.50;;;;;3.17;61.15;101609.28;6160901;23;48049;-85
2021/12/22 01:54:11;;;;;;;;;47.25;43.00;;;;;3.36;61.30;101617.41;6161773;23;45406;-85
2021/12/22 01:56:36;;;;;;;;;28.00;26.75;;;;;3.22;61.14;101618.34;6134738;23;45697;-85
2021/12/22 01:59:06;;;;;;;;;43.75;38.50;;;;;3.42;61.10;101615.97;6161648;23;45626;-84
2021/12/22 02:01:33;;;;;;;;;44.75;39.25;;;;;3.28;61.14;101602.94;6159189;23;48265;-85
2021/12/22 02:04:02;;;;;;;;;36.25;33.50;;;;;3.45;60.49;101601.25;6159966;23;45373;-85
2021/12/22 02:06:28;;;;;;;;;40.75;40.75;;;;;3.35;60.91;101615.63;6160583;23;45415;-83
2021/12/22 02:08:55;;;;;;;;;49.75;45.00;;;;;3.38;61.59;101600.00;6162119;23;44913;-84
2021/12/22 02:11:22;;;;;;;;;46.75;42.25;;;;;3.36;61.08;101585.88;6162019;23;45788;-84
2021/12/22 02:13:55;;;;;;;;;47.25;36.25;;;;;3.45;60.47;101595.09;6162063;23;44679;-84
2021/12/22 02:16:26;;;;;;;;;34.75;29.25;;;;;3.47;60.61;101598.72;6159801;23;45736;-84
2021/12/22 02:18:53;;;;;;;;;47.25;40.00;;;;;3.39;60.87;101582.50;6135266;23;45649;-84
2021/12/22 02:21:20;;;;;;;;;41.25;37.50;;;;;3.45;61.06;101600.34;6134525;23;46796;-84
2021/12/22 02:23:46;;;;;;;;;44.00;35.50;;;;;3.42;60.08;101594.94;6134775;23;45825;-85
2021/12/22 02:26:18;;;;;;;;;42.00;36.25;;;;;3.55;61.16;101603.56;6161884;23;45423;-84
2021/12/22 02:28:47;;;;;;;;;52.75;44.50;;;;;3.46;60.99;101596.91;6160473;23;45351;-85
2021/12/22 02:31:17;;;;;;;;;44.25;35.75;;;;;3.57;60.37;101595.78;6161901;23;45154;-84
2021/12/22 02:33:46;;;;;;;;;40.75;36.75;;;;;3.53;61.06;101606.94;6136765;23;45924;-83
2021/12/22 02:38:46;;;;;;;;;42.75;40.75;;;;;3.64;60.46;101594.44;6163696;23;45320;-84
2021/12/22 02:41:14;;;;;;;;;45.75;43.00;;;;;3.69;60.91;101595.56;6136456;23;46721;-83
2021/12/22 02:43:48;;;;;;;;;43.25;40.00;;;;;3.61;60.72;101581.97;6135818;23;45518;-84
2021/12/22 02:46:16;;;;;;;;;56.50;41.25;;;;;3.75;60.85;101596.81;6160313;23;45391;-84
2021/12/22 02:48:43;;;;;;;;;57.00;47.50;;;;;3.79;60.59;101597.88;6162765;23;45376;-84
2021/12/22 02:51:09;;;;;;;;;47.75;44.50;;;;;3.52;60.61;101581.50;6161629;23;45553;-84
2021/12/22 03:06:22;;;;;;;;;53.75;45.00;;;;;3.77;60.68;101589.00;6162510;23;45372;-84
2021/12/22 03:08:47;;;;;;;;;53.25;44.00;;;;;3.81;60.10;101586.63;6162679;23;45286;-84
2021/12/22 03:11:12;;;;;;;;;51.00;44.00;;;;;3.85;60.24;101582.44;6162403;23;46364;-84
2021/12/22 03:13:38;;;;;;;;;47.50;43.75;;;;;3.92;59.80;101579.34;6162594;23;45629;-84
2021/12/22 03:16:04;;;;;;;;;46.75;43.25;;;;;3.97;59.80;101572.56;6161861;23;44815;-84
2021/12/22 03:18:31;;;;;;;;;46.25;42.25;;;;;4.03;59.54;101579.91;6166151;23;45602;-84
2021/12/22 03:21:05;;;;;;;;;41.00;34.50;;;;;4.00;59.93;101585.00;6192579;23;46538;-85
2021/12/22 03:23:30;;;;;;;;;49.00;44.25;;;;;4.02;59.02;101572.84;6192578;23;45598;-85
2021/12/22 03:25:58;;;;;;;;;54.25;47.00;;;;;4.13;59.91;101571.66;6193310;23;45320;-84
2021/12/22 03:28:24;;;;;;;;;54.75;44.00;;;;;4.03;59.99;101590.44;6166740;23;45477;-84
2021/12/22 03:30:52;;;;;;;;;53.25;43.25;;;;;4.05;59.32;101588.78;6165759;23;47127;-84
2021/12/22 03:33:17;;;;;;;;;51.50;41.25;;;;;3.99;59.28;101597.25;6193938;23;45511;-84
2021/12/22 03:35:43;;;;;;;;;53.75;44.50;;;;;3.95;59.72;101589.09;6193010;23;45437;-84
2021/12/22 03:38:08;;;;;;;;;47.25;43.75;;;;;4.01;59.97;101589.44;6193150;23;45306;-84
2021/12/22 03:40:34;;;;;;;;;44.25;41.25;;;;;3.91;59.68;101587.13;6164867;23;47252;-84
2021/12/22 03:42:59;;;;;;;;;52.00;43.75;;;;;3.90;59.53;101580.03;6165846;23;45366;-84
2021/12/22 03:45:25;;;;;;;;;45.00;38.50;;;;;3.94;59.68;101589.94;6166748;23;45292;-84
2021/12/22 03:47:50;;;;;;;;;43.75;38.25;;;;;3.97;60.02;101598.00;6167519;23;45043;-84
2021/12/22 03:50:17;;;;;;;;;54.25;46.00;;;;;4.03;59.78;101592.16;6168724;23;47106;-84
2021/12/22 03:52:42;;;;;;;;;51.25;39.25;;;;;3.98;59.04;101599.81;6194719;23;44808;-85
2021/12/22 03:55:09;;;;;;;;;50.75;44.00;;;;;4.11;59.17;101593.47;6168925;23;45380;-84
2021/12/22 03:57:34;;;;;;;;;52.75;46.00;;;;;4.07;59.39;101583.59;6192770;22;45401;-83
2021/12/22 04:00:02;;;;;;;;;49.50;42.50;;;;;4.14;59.54;101583.09;6141081;23;48318;-84
2021/12/22 04:02:29;;;;;;;;;47.25;40.50;;;;;4.18;59.36;101578.09;6191260;23;45462;-85
2021/12/22 04:04:54;;;;;;;;;49.50;45.00;;;;;4.15;58.81;101567.38;6192250;23;44818;-85
2021/12/22 04:07:20;;;;;;;;;46.25;41.75;;;;;4.13;59.41;101569.03;6192268;23;45455;-85
2021/12/22 04:09:46;;;;;;;;;45.25;41.75;;;;;4.19;58.90;101569.34;6192623;23;45286;-85
2021/12/22 04:12:12;;;;;;;;;56.00;45.00;;;;;4.14;58.92;101567.31;6188716;23;45705;-84
2021/12/22 04:14:37;;;;;;;;;46.25;39.00;;;;;4.12;58.61;101564.63;6163347;23;45602;-84
2021/12/22 04:17:03;;;;;;;;;56.50;45.25;;;;;4.18;58.67;101564.94;6192874;23;45375;-84
2021/12/22 04:19:29;;;;;;;;;48.50;45.25;;;;;4.07;58.99;101567.81;6194194;23;45355;-84
2021/12/22 04:21:55;;;;;;;;;40.50;35.00;;;;;4.08;59.64;101566.97;6167426;23;45407;-85
2021/12/22 04:24:22;;;;;;;;;55.00;46.00;;;;;4.11;58.67;101565.41;6167946;23;45341;-84
2021/12/22 04:26:48;;;;;;;;;49.75;41.50;;;;;4.12;59.36;101559.34;6168883;23;45314;-84
2021/12/22 04:29:13;;;;;;;;;41.50;38.50;;;;;4.19;59.03;101558.84;6195031;23;45319;-85
2021/12/22 04:31:40;;;;;;;;;55.75;46.25;;;;;4.43;58.92;101567.97;6193889;23;45351;-85
2021/12/22 04:34:09;;;;;;;;;50.75;43.75;;;;;4.29;58.83;101564.59;6190473;23;45349;-85
2021/12/22 04:36:36;;;;;;;;;52.75;38.50;;;;;4.33;58.56;101572.72;6164972;23;45391;-85
2021/12/22 04:39:02;;;;;;;;;58.50;43.25;;;;;4.27;57.81;101568.88;6188821;23;46940;-85
2021/12/22 04:41:27;;;;;;;;;48.25;42.75;;;;;4.27;58.30;101577.66;6164339;23;45790;-85
2021/12/22 04:43:54;;;;;;;;;43.75;39.00;;;;;4.44;58.17;101575.00;6164628;23;45697;-84
2021/12/22 04:46:21;;;;;;;;;56.25;43.00;;;;;4.38;58.29;101575.59;6190022;23;45872;-84
2021/12/22 04:48:46;;;;;;;;;54.75;43.50;;;;;4.25;58.41;101578.44;6164415;23;47413;-84
2021/12/22 04:51:24;;;;;;;;;42.50;39.50;;;;;4.24;58.75;101571.34;6164139;23;45705;-85
2021/12/22 04:53:56;;;;;;;;;36.75;32.50;;;;;4.24;58.72;101572.22;6192376;23;45383;-85
2021/12/22 04:56:22;;;;;;;;;48.50;42.50;;;;;4.26;57.97;101574.94;6163559;23;45837;-83
2021/12/22 04:58:47;;;;;;;;;40.75;36.25;;;;;4.20;58.68;101565.91;6164511;23;47299;-85
2021/12/22 05:01:12;;;;;;;;;43.50;35.25;;;;;4.24;58.81;101568.69;6188085;23;45715;-85
2021/12/22 05:03:41;;;;;;;;;46.50;43.25;;;;;4.38;58.42;101562.44;6164125;23;45341;-84
2021/12/22 05:06:56;;;;;;;;;46.75;40.50;;;;;4.60;57.43;101568.00;6189393;23;45330;-83
2021/12/22 05:09:22;;;;;;;;;44.50;38.50;;;;;4.14;58.38;101544.53;6164569;23;47993;-84
2021/12/22 05:11:48;;;;;;;;;42.75;35.25;;;;;4.12;58.31;101546.19;6166219;23;45392;-84
2021/12/22 05:14:14;;;;;;;;;45.75;41.00;;;;;4.12;58.72;101546.19;6165836;23;44963;-84
2021/12/22 05:16:45;;;;;;;;;53.75;48.00;;;;;4.10;58.28;101546.91;6163415;23;45366;-84
2021/12/22 05:19:15;;;;;;;;;47.00;37.75;;;;;4.09;58.12;101551.28;6160897;23;45324;-85
2021/12/22 05:21:42;;;;;;;;;44.00;41.25;;;;;4.16;58.41;101545.53;6133590;23;45620;-84
2021/12/22 05:24:07;;;;;;;;;38.25;31.75;;;;;4.07;58.59;101536.22;6160448;23;45478;-84
2021/12/22 05:26:33;;;;;;;;;44.00;42.00;;;;;4.13;58.61;101549.72;6135604;23;45384;-84
2021/12/22 05:28:59;;;;;;;;;36.25;35.25;;;;;4.10;58.54;101541.63;6162486;23;45723;-84
2021/12/22 05:31:25;;;;;;;;;47.00;43.50;;;;;4.12;58.63;101551.44;6163348;23;45307;-84
2021/12/22 05:33:51;;;;;;;;;39.50;37.25;;;;;4.05;58.64;101544.03;6162466;23;45483;-84
2021/12/22 05:36:17;;;;;;;;;45.50;42.75;;;;;4.10;58.32;101547.84;6136413;23;45372;-84
2021/12/22 05:38:42;;;;;;;;;53.25;45.50;;;;;4.10;58.36;101557.44;6134385;23;46955;-84
2021/12/22 05:41:08;;;;;;;;;49.50;39.50;;;;;4.17;58.27;101554.31;6161773;23;44768;-84
2021/12/22 05:43:34;;;;;;;;;49.50;45.75;;;;;4.29;58.20;101549.69;6135351;23;45360;-83
2021/12/22 05:46:00;;;;;;;;;54.75;44.50;;;;;4.12;57.97;101548.81;6136994;23;44698;-84
2021/12/22 05:48:26;;;;;;;;;40.75;36.75;;;;;4.17;57.86;101560.47;6135289;23;46910;-83
2021/12/22 05:50:54;;;;;;;;;49.50;45.00;;;;;4.13;58.19;101557.63;6160967;23;45277;-83
2021/12/22 05:53:19;;;;;;;;;43.00;40.00;;;;;4.09;58.15;101551.28;6137330;23;45802;-84
2021/12/22 05:59:07;;;;;;;;;48.50;42.25;;;;;4.16;58.09;101573.56;6162555;23;45475;-84
2021/12/22 06:01:32;;;;;;;;;45.25;43.50;;;;;4.13;58.15;101570.78;6161540;23;45515;-83
2021/12/22 06:04:02;;;;;;;;;49.00;38.25;;;;;4.18;57.80;101571.91;6137234;23;45531;-84
2021/12/22 06:06:29;;;;;;;;;47.00;43.75;;;;;4.13;57.87;101573.41;6137257;23;45365;-85
2021/12/22 06:08:56;;;;;;;;;44.50;41.25;;;;;4.10;58.43;101547.84;6137469;23;46982;-84
2021/12/22 06:11:22;;;;;;;;;42.25;36.75;;;;;3.99;57.75;101559.50;6161431;23;45277;-84
2021/12/22 06:13:47;;;;;;;;;41.25;34.50;;;;;3.80;58.17;101540.09;6162650;23;45333;-84
2021/12/22 06:16:19;;;;;;;;;39.25;37.75;;;;;4.29;58.41;101570.75;6158551;23;45742;-85
2021/12/22 06:18:46;;;;;;;;;49.50;38.00;;;;;4.03;57.63;101565.84;6192515;23;45399;-85
2021/12/22 06:21:13;;;;;;;;;49.50;41.00;;;;;4.16;57.65;101563.94;6166538;23;45294;-85
2021/12/22 06:23:40;;;;;;;;;38.75;32.50;;;;;3.84;57.44;101528.00;6165117;23;45835;-86
2021/12/22 06:26:06;;;;;;;;;41.25;39.25;;;;;3.95;57.19;101547.00;6190464;23;45794;-85
2021/12/22 06:28:32;;;;;;;;;47.50;42.00;;;;;3.76;57.82;101530.22;6164458;23;47981;-85
2021/12/22 06:30:57;;;;;;;;;47.00;41.25;;;;;3.87;57.52;101556.22;6165184;23;45362;-85
2021/12/22 06:33:23;;;;;;;;;28.75;19.50;;;;;3.83;58.22;101535.81;6166039;23;45356;-85
2021/12/22 06:35:49;;;;;;;;;32.50;31.00;;;;;3.98;57.64;101550.72;6193041;23;45373;-84
2021/12/22 06:38:15;;;;;;;;;51.50;43.25;;;;;3.91;58.02;101556.44;6165955;23;48318;-85
2021/12/22 06:40:41;;;;;;;;;47.00;41.50;;;;;3.77;57.77;101536.38;6166339;23;45265;-85
2021/12/22 06:43:09;;;;;;;;;38.75;34.25;;;;;4.01;58.11;101552.59;6190442;23;45653;-85
2021/12/22 06:45:35;;;;;;;;;52.25;40.75;;;;;3.85;58.13;101578.91;6190617;23;45406;-84
2021/12/22 06:48:01;;;;;;;;;48.00;43.25;;;;;3.88;57.78;101573.78;6192451;23;46559;-84
2021/12/22 06:50:35;;;;;;;;;56.75;43.50;;;;;3.89;57.69;101546.66;6165758;23;45402;-84
2021/12/22 06:53:00;;;;;;;;;44.50;39.00;;;;;3.84;58.50;101593.78;6167890;23;44732;-84
2021/12/22 06:55:30;;;;;;;;;44.50;38.00;;;;;4.06;57.63;101579.16;6194274;23;45364;-84
2021/12/22 06:57:56;;;;;;;;;35.50;30.75;;;;;3.68;58.15;101578.88;6167611;23;47171;-84
2021/12/22 07:00:22;;;;;;;;;60.50;44.50;;;;;3.47;58.36;101536.50;6192678;22;45285;-85
2021/12/22 07:02:52;;;;;;;;;54.50;43.50;;;;;3.97;58.04;101574.31;6195448;23;45752;-84
2021/12/22 07:05:25;;;;;;;;;45.25;42.25;;;;;3.73;58.61;101561.63;6168525;23;45552;-85
2021/12/22 07:07:50;;;;;;;;;50.50;43.75;;;;;3.83;57.88;101573.56;6196213;23;46268;-84
2021/12/22 07:10:17;;;;;;;;;55.25;43.50;;;;;3.85;58.65;101547.31;6167291;23;45424;-84
2021/12/22 07:12:46;;;;;;;;;48.25;43.25;;;;;3.99;58.34;101551.59;6192399;23;45403;-85
2021/12/22 07:15:15;;;;;;;;;59.00;45.25;;;;;3.86;57.76;101573.72;6133929;23;45448;-84
2021/12/22 07:17:43;;;;;;;;;48.50;43.75;;;;;3.51;58.48;101516.53;6136811;23;46982;-85
2021/12/22 07:20:13;;;;;;;;;46.00;44.00;;;;;3.69;58.61;101546.47;6136610;23;45314;-84
2021/12/22 07:22:39;;;;;;;;;55.25;45.50;;;;;3.71;58.80;101555.38;6161298;23;45700;-84
2021/12/22 07:25:07;;;;;;;;;41.00;38.50;;;;;3.56;58.17;101521.25;6164568;23;45774;-86
2021/12/22 07:27:36;;;;;;;;;53.75;45.50;;;;;3.46;57.91;101539.06;6166987;23;45303;-85
2021/12/22 07:30:02;;;;;;;;;48.75;44.00;;;;;3.44;58.55;101535.44;6163413;23;45503;-87
2021/12/22 07:32:59;;;;;;;;;44.00;34.25;;;;;3.70;57.00;101531.63;6137091;23;44898;-83
2021/12/22 07:35:33;;;;;;;;;42.25;41.00;;;;;3.62;56.86;101525.03;6137787;23;45912;-85
2021/12/22 07:38:07;;;;;;;;;55.50;42.00;;;;;3.93;57.79;101572.34;6136998;23;47263;-84
2021/12/22 07:40:33;;;;;;;;;29.50;27.50;;;;;3.34;57.59;101521.78;6138290;23;44904;-84
2021/12/22 07:42:58;;;;;;;;;37.25;32.00;;;;;3.46;57.79;101557.47;6138547;23;45389;-85
2021/12/22 07:45:26;;;;;;;;;40.00;33.25;;;;;3.40;57.66;101523.84;6164594;23;45440;-84
2021/12/22 07:47:52;;;;;;;;;46.75;36.00;;;;;3.30;57.74;101553.97;6139336;23;46619;-85
2021/12/22 07:50:20;;;;;;;;;44.00;40.50;;;;;3.37;58.25;101547.31;6164337;23;45388;-86
2021/12/22 07:52:46;;;;;;;;;52.50;43.00;;;;;3.48;57.89;101563.72;6138949;23;45383;-86
2021/12/22 07:55:11;;;;;;;;;38.25;35.25;;;;;3.42;58.11;101552.88;6163194;23;45560;-86
2021/12/22 07:57:38;;;;;;;;;44.25;37.25;;;;;3.55;58.55;101539.56;6164700;23;46988;-85
2021/12/22 08:00:09;;;;;;;;;38.75;38.75;;;;;3.77;57.85;101579.38;6166163;23;45390;-85
2021/12/22 08:02:37;;;;;;;;;45.00;28.00;;;;;3.87;57.85;101593.94;6140864;23;45321;-84
2021/12/22 08:05:04;;;;;;;;;42.50;36.25;;;;;3.50;57.69;101535.78;6166672;23;44841;-85
2021/12/22 08:07:34;;;;;;;;;41.50;37.50;;;;;3.80;57.88;101565.50;6139142;23;48361;-85
2021/12/22 08:13:21;;;;;;;;;43.00;38.00;;;;;3.77;57.58;101583.75;6165454;23;45833;-84
2021/12/22 08:15:47;;;;;;;;;47.25;43.50;;;;;3.74;58.43;101571.34;6152886;23;45383;-84
2021/12/22 08:18:12;;;;;;;;;46.25;37.25;;;;;3.77;58.33;101574.13;6166773;23;47086;-84
2021/12/22 08:20:38;;;;;;;;;59.00;44.00;;;;;3.74;57.71;101563.44;6195256;23;45373;-84
2021/12/22 08:23:04;;;;;;;;;45.25;34.75;;;;;3.76;57.67;101561.78;6198364;23;44881;-84
2021/12/22 08:25:32;;;;;;;;;49.25;40.00;;;;;3.99;58.17;101559.50;6167977;22;45968;-84
2021/12/22 08:27:58;;;;;;;;;42.25;34.25;;;;;3.85;57.58;101564.00;6195151;23;45459;-84
2021/12/22 08:30:23;;;;;;;;;55.75;42.25;;;;;3.87;57.80;101564.09;6169281;23;45436;-84
2021/12/22 08:33:43;;;;;;;;;44.25;39.50;;;;;4.23;57.70;101559.00;6168568;23;45733;-84
2021/12/22 08:38:56;;;;;;;;;58.75;40.25;;;;;3.92;57.33;101541.56;6193326;23;45649;-85
2021/12/22 08:41:31;;;;;;;;;50.75;41.50;;;;;4.29;57.53;101559.34;6169052;23;45649;-85
2021/12/22 08:44:16;;;;;;;;;;;;;;;;;;;;;
2021/12/22 08:47:38;;;;;;;;;40.75;37.50;;;;;4.40;57.19;101560.78;6194968;23;66300;-85
2021/12/22 08:50:05;;;;;;;;;36.75;31.25;;;;;4.17;57.48;101571.00;6167131;23;45821;-86
2021/12/22 08:59:31;;;;;;;;;49.25;44.25;;;;;4.39;56.98;101551.09;6201819;23;44911;-85
2021/12/22 09:01:58;;;;;;;;;47.25;41.50;;;;;4.15;56.53;101548.06;6194932;23;46693;-85
2021/12/22 09:04:44;;;;;;;;;46.00;39.50;;;;;4.28;57.11;101528.53;6195320;23;45390;-86
2021/12/22 09:07:10;;;;;;;;;40.75;32.75;;;;;3.96;57.18;101518.13;6169234;23;45256;-85
2021/12/22 09:09:38;;;;;;;;;57.00;50.25;;;;;4.14;57.62;101549.81;6167224;23;45437;-86
2021/12/22 09:12:04;;;;;;;;;62.75;49.50;;;;;3.99;57.62;101517.38;6167476;23;46973;-86
2021/12/22 09:14:33;;;;;;;;;47.25;41.75;;;;;3.93;57.48;101496.91;6196186;23;44847;-85
2021/12/22 09:16:59;;;;;;;;;55.75;44.00;;;;;4.05;56.57;101517.72;6168661;23;45215;-85
2021/12/22 09:19:27;;;;;;;;;52.25;46.75;;;;;4.39;57.68;101545.81;6138842;23;45485;-83
2021/12/22 09:21:53;;;;;;;;;43.50;41.00;;;;;3.98;57.28;101500.69;6113303;23;47759;-83
2021/12/22 09:24:24;;;;;;;;;50.50;45.25;;;;;4.07;57.41;101507.28;6137900;23;45377;-84
2021/12/22 09:26:50;;;;;;;;;57.75;46.75;;;;;4.12;57.23;101522.50;6164212;23;45352;-84
2021/12/22 09:29:15;;;;;;;;;66.00;49.25;;;;;4.19;57.09;101537.78;6139975;23;44881;-84
2021/12/22 09:31:41;;;;;;;;;49.25;41.75;;;;;4.20;57.49;101542.22;6166318;23;45460;-82
2021/12/22 09:34:08;;;;;;;;;39.25;29.75;;;;;4.40;57.42;101548.53;6138561;23;45416;-83
2021/12/22 09:36:33;;;;;;;;;46.75;42.25;;;;;4.19;57.19;101521.97;6136177;23;45430;-84
2021/12/22 09:39:08;;;;;;;;;60.25;46.50;;;;;4.64;56.74;101537.44;6138123;23;45426;-81
2021/12/22 09:41:35;;;;;;;;;46.25;39.75;;;;;4.34;56.24;101528.84;6137174;23;47194;-82
2021/12/22 09:44:01;;;;;;;;;50.75;38.25;;;;;4.40;56.47;101539.72;6165493;23;45603;-84
2021/12/22 09:47:11;;;;;;;;;49.50;42.75;;;;;4.87;55.84;101567.59;6136060;23;45533;-83
2021/12/22 09:52:21;;;;;;;;;47.75;42.00;;;;;4.43;55.80;101521.44;6162697;23;46117;-85
2021/12/22 09:54:53;;;;;;;;;54.00;46.50;;;;;4.82;56.04;101564.72;6164719;23;45390;-87
2021/12/22 09:57:22;;;;;;;;;44.75;43.25;;;;;4.61;56.77;101532.03;6163105;23;45374;-84
2021/12/22 09:59:56;;;;;;;;;60.75;47.00;;;;;4.90;56.52;101551.91;6164813;23;45222;-84
2021/12/22 10:02:28;;;;;;;;;34.00;33.25;;;;;4.89;56.10;101560.66;6161798;23;46973;-84
2021/12/22 10:04:55;;;;;;;;;47.50;45.25;;;;;4.75;55.53;101545.91;6161864;23;45823;-82
2021/12/22 10:07:25;;;;;;;;;56.50;48.50;;;;;4.65;56.36;101523.44;6163667;23;45811;-82
2021/12/22 10:10:05;;;;;;;;;53.25;46.25;;;;;5.09;55.88;101550.19;6161483;23;45784;-85
2021/12/22 10:12:31;;;;;;;;;61.00;48.00;;;;;4.51;55.57;101499.03;6162685;23;46386;-84
2021/12/22 10:15:00;;;;;;;;;57.75;46.00;;;;;5.01;54.92;101560.38;6139393;23;45774;-83
2021/12/22 10:17:35;;;;;;;;;47.75;41.75;;;;;5.07;56.35;101563.31;6139015;23;45297;-83
2021/12/22 10:23:46;;;;;;;;;;;;;;;;;;;;;
2021/12/22 10:26:16;;;;;;;;;67.75;49.75;;;;;5.04;55.59;101533.25;6165248;23;71981;-83
2021/12/22 10:28:53;;;;;;;;;57.25;44.25;;;;;5.39;55.33;101561.34;6165541;23;45669;-84
2021/12/22 10:38:23;;;;;;;;;50.75;41.50;;;;;5.27;54.40;101548.47;6044983;23;45458;-85
2021/12/22 10:41:08;;;;;;;;;50.50;43.75;;;;;5.33;54.68;101535.59;6020005;23;44848;-86
2021/12/22 10:44:19;;;;;;;;;55.75;46.25;;;;;5.20;54.84;101535.81;6015937;23;45345;-84
2021/12/22 10:49:14;;;;;;;;;57.25;46.75;;;;;5.34;54.17;101529.47;6029669;23;45680;-84
2021/12/22 10:50:35;;;;;;;;;64.75;45.25;;;;;4.92;54.99;101454.47;6022713;23;45292;-86
2021/12/22 10:53:03;;;;;;;;;63.50;49.75;;;;;4.72;55.44;101445.59;6017318;23;45401;-85
2021/12/22 10:55:44;;;;;;;;;54.50;47.25;;;;;5.25;54.32;101493.84;6042209;23;45337;-87
2021/12/22 10:58:26;;;;;;;;;59.75;48.50;;;;;5.02;54.77;101446.19;6039895;23;47477;-84
2021/12/22 11:01:07;;;;;;;;;55.00;45.50;;;;;5.44;55.18;101506.19;6013658;23;45279;-83
2021/12/22 11:04:03;;;;;;;;;46.50;35.50;;;;;5.25;54.87;101480.66;6017282;23;45356;-86
2021/12/22 11:06:34;;;;;;;;;50.25;44.25;;;;;5.16;54.52;101447.75;6017741;23;45332;-85
2021/12/22 11:09:41;;;;;;;;;53.75;43.75;;;;;5.33;54.37;101474.00;6016984;23;48070;-85
2021/12/22 11:13:04;;;;;;;;;;;;;;;;;;;;;
2021/12/22 11:16:01;;;;;;;;;47.00;39.25;;;;;5.24;53.62;101436.66;6149766;23;68804;-85
2021/12/22 11:18:53;;;;;;;;;;;;;;;;;;;;;
2021/12/22 11:21:30;;;;;;;;;58.00;44.75;;;;;5.24;54.57;101468.31;6189732;23;75257;-84
2021/12/22 11:24:05;;;;;;;;;43.50;38.25;;;;;5.51;54.26;101464.31;6188250;23;45463;-85
2021/12/22 11:26:46;;;;;;;;;60.50;46.75;;;;;5.71;53.98;101472.25;6194009;22;45598;-84
2021/12/22 11:29:15;;;;;;;;;55.25;49.00;;;;;5.54;54.79;101447.72;6193945;23;45345;-86
2021/12/22 11:32:07;;;;;;;;;63.25;48.25;;;;;5.82;54.24;101471.91;6193977;23;47713;-83
2021/12/22 11:34:38;;;;;;;;;58.75;45.25;;;;;5.76;53.58;101452.25;6185966;23;45512;-84
2021/12/22 11:37:07;;;;;;;;;54.25;44.50;;;;;5.84;54.59;101442.00;6193348;22;44867;-84
2021/12/22 11:39:43;;;;;;;;;57.25;47.75;;;;;5.68;53.93;101388.56;6192957;23;45426;-87
2021/12/22 11:42:12;;;;;;;;;53.75;44.50;;;;;5.82;53.31;101449.88;6190988;23;45740;-84
2021/12/22 11:44:44;;;;;;;;;57.50;46.50;;;;;5.74;54.09;101441.63;6192612;22;45720;-86
2021/12/22 11:47:53;;;;;;;;;50.75;43.75;;;;;5.97;52.67;101447.03;6199440;23;45313;-85
2021/12/22 11:50:46;;;;;;;;;52.25;42.75;;;;;5.80;52.63;101431.31;6168779;23;45470;-85
2021/12/22 11:53:50;;;;;;;;;;;;;;;;;;;;;
2021/12/22 12:00:16;;;;;;;;;61.25;44.50;;;;;5.80;53.68;101418.13;6178386;23;45317;-85
2021/12/22 12:02:42;;;;;;;;;51.75;43.25;;;;;5.35;53.03;101365.13;6190182;23;44917;-86
2021/12/22 12:05:30;;;;;;;;;32.25;29.00;;;;;5.95;52.37;101393.28;6198753;23;46411;-84
2021/12/22 12:08:01;;;;;;;;;57.75;47.25;;;;;5.78;52.75;101401.31;6199488;23;45546;-87
2021/12/22 12:10:42;;;;;;;;;48.25;43.50;;;;;5.52;53.56;101339.47;6199023;22;45317;-85
2021/12/22 12:13:33;;;;;;;;;56.50;46.25;;;;;5.85;53.67;101380.47;6195244;23;45486;-85
2021/12/22 12:21:56;;;;;;;;;45.25;42.00;;;;;6.44;51.73;101378.59;6192194;23;45295;-84
2021/12/22 12:24:30;;;;;;;;;44.50;33.75;;;;;6.38;51.83;101380.16;6189758;23;45431;-86
2021/12/22 12:27:39;;;;;;;;;45.00;40.50;;;;;6.25;51.23;101369.91;6190312;23;47279;-85
2021/12/22 12:30:43;;;;;;;;;60.75;47.50;;;;;6.25;51.90;101372.53;6190941;23;45311;-85
2021/12/22 12:34:01;;;;;;;;;51.25;44.50;;;;;6.19;51.69;101367.91;6194191;23;45351;-84
2021/12/22 12:36:32;;;;;;;;;46.75;43.50;;;;;5.96;52.43;101364.31;6193589;23;45311;-86
2021/12/22 12:39:03;;;;;;;;;54.75;42.50;;;;;5.47;53.43;101324.28;6192043;23;45545;-85
2021/12/22 12:42:29;;;;;;;;;51.25;44.75;;;;;5.99;52.19;101376.72;6199190;23;45268;-86
2021/12/22 12:45:06;;;;;;;;;48.00;42.00;;;;;5.92;53.45;101377.28;6076606;23;45897;-83